Time;durP1;ratioP1;P1;durP2;ratioP2;P2;SDS_P1;SDS_P2;PMS_P1;PMS_P2;Temp;Humidity;BMP_temperature;BMP_pressure;BME280_temperature;BME280_humidity;BME280_pressure;Samples;Min_cycle;Max_cycle;Signal;HPM_P1;HPM_P2
2023/05/25 00:02:18;;;;;;;15.55;7.03;;;;;;;8.65;84.66;102482.47;4945161;28;20043;-79
2023/05/25 00:04:47;;;;;;;15.25;7.30;;;;;;;8.66;85.09;102476.41;4948839;28;20042;-79
2023/05/25 00:07:14;;;;;;;13.27;7.18;;;;;;;8.56;85.17;102478.75;4947029;28;20043;-79
2023/05/25 00:09:43;;;;;;;17.02;7.13;;;;;;;8.51;85.47;102477.81;4959602;28;20038;-79
2023/05/25 00:12:08;;;;;;;16.77;6.75;;;;;;;8.43;85.52;102474.94;4944357;28;20070;-79
2023/05/25 00:14:34;;;;;;;17.48;7.03;;;;;;;8.47;85.86;102474.22;4945978;28;20109;-79
2023/05/25 00:17:02;;;;;;;15.38;6.20;;;;;;;8.41;86.75;102484.50;4948662;28;20124;-79
2023/05/25 00:19:31;;;;;;;14.27;7.10;;;;;;;8.35;86.68;102492.16;4931242;28;20029;-79
2023/05/25 00:22:00;;;;;;;18.58;7.50;;;;;;;8.30;87.16;102486.84;4964617;28;20046;-79
2023/05/25 00:24:27;;;;;;;17.10;6.82;;;;;;;8.32;86.61;102493.00;4937138;28;20031;-79
2023/05/25 00:26:53;;;;;;;17.23;6.80;;;;;;;8.35;86.70;102486.94;4949110;28;20019;-79
2023/05/25 00:29:18;;;;;;;18.23;7.28;;;;;;;8.35;86.54;102486.94;4950036;28;20046;-79
2023/05/25 00:31:44;;;;;;;12.98;6.38;;;;;;;8.35;86.20;102495.69;4952878;28;20555;-78
2023/05/25 00:34:09;;;;;;;13.50;6.45;;;;;;;8.35;86.82;102481.72;4949520;28;20467;-79
2023/05/25 00:36:35;;;;;;;16.23;6.63;;;;;;;8.31;86.84;102481.66;4933273;28;20093;-78
2023/05/25 00:39:01;;;;;;;12.93;6.43;;;;;;;8.33;86.90;102477.38;4948530;28;20460;-79
2023/05/25 00:41:27;;;;;;;13.68;6.40;;;;;;;8.30;86.42;102479.91;4936302;28;20038;-79
2023/05/25 00:43:53;;;;;;;14.52;6.57;;;;;;;8.28;86.24;102483.31;4960996;28;20053;-79
2023/05/25 00:46:19;;;;;;;14.43;6.50;;;;;;;8.27;86.51;102485.03;4934121;28;20043;-78
2023/05/25 00:48:45;;;;;;;13.80;6.50;;;;;;;8.27;87.05;102485.03;4949998;28;20035;-78
2023/05/25 00:51:13;;;;;;;14.25;6.00;;;;;;;8.29;86.53;102488.59;4935618;28;20453;-79
2023/05/25 00:53:38;;;;;;;15.05;6.55;;;;;;;8.25;86.54;102484.13;4960977;28;20098;-79
2023/05/25 00:56:16;;;;;;;15.77;6.70;;;;;;;8.27;87.52;102489.38;4950868;28;20055;-79
2023/05/25 00:58:45;;;;;;;15.43;6.60;;;;;;;8.21;87.41;102490.13;4948647;28;20361;-79
2023/05/25 01:01:14;;;;;;;14.52;6.40;;;;;;;8.23;86.70;102492.75;4966305;28;20041;-79
2023/05/25 01:03:45;;;;;;;15.45;6.93;;;;;;;8.21;87.30;102494.47;4965488;28;20487;-78
2023/05/25 01:06:14;;;;;;;11.57;6.40;;;;;;;8.19;87.75;102497.03;4967055;28;20022;-79
2023/05/25 01:08:43;;;;;;;14.10;6.80;;;;;;;8.12;87.07;102489.91;4964742;28;20027;-79
2023/05/25 01:11:10;;;;;;;14.18;6.20;;;;;;;8.12;86.89;102496.00;4965076;28;20118;-79
2023/05/25 01:13:37;;;;;;;12.85;6.55;;;;;;;8.13;88.00;102499.47;4966341;28;20129;-78
2023/05/25 01:16:07;;;;;;;12.80;6.28;;;;;;;8.12;87.38;102495.13;4933610;28;20429;-78
2023/05/25 01:18:33;;;;;;;15.05;7.28;;;;;;;8.08;87.55;102482.84;4965172;28;20031;-78
2023/05/25 01:21:13;;;;;;;16.05;7.22;;;;;;;8.10;87.36;102491.56;4932936;28;20045;-78
2023/05/25 01:23:51;;;;;;;13.25;6.38;;;;;;;8.07;87.36;102497.59;4962852;28;20447;-78
2023/05/25 01:26:19;;;;;;;13.60;6.53;;;;;;;8.02;87.94;102504.44;4962850;28;20027;-77
2023/05/25 01:28:52;;;;;;;15.40;6.57;;;;;;;8.01;87.46;102502.69;4946418;28;20555;-78
2023/05/25 01:31:21;;;;;;;11.45;6.40;;;;;;;8.00;87.81;102506.13;4964591;28;20039;-78
2023/05/25 01:33:50;;;;;;;12.90;6.85;;;;;;;7.98;86.91;102506.09;4961129;28;20090;-78
2023/05/25 01:36:15;;;;;;;12.35;5.82;;;;;;;7.97;86.93;102514.78;4962145;28;20022;-78
2023/05/25 01:38:41;;;;;;;14.85;6.18;;;;;;;7.89;87.84;102521.53;4951187;28;20050;-79
2023/05/25 01:41:06;;;;;;;15.77;6.40;;;;;;;7.87;88.08;102519.72;4951988;28;20038;-79
2023/05/25 01:43:32;;;;;;;11.77;6.22;;;;;;;7.79;88.28;102520.38;4927503;28;20556;-79
2023/05/25 01:46:10;;;;;;;17.30;7.10;;;;;;;7.78;88.85;102515.13;4938090;28;20045;-79
2023/05/25 01:48:53;;;;;;;14.70;6.72;;;;;;;7.75;88.56;102521.13;4967079;28;20030;-79
2023/05/25 01:51:35;;;;;;;13.65;6.18;;;;;;;7.72;89.64;102517.59;4962858;28;20039;-79
2023/05/25 01:54:25;;;;;;;11.70;6.15;;;;;;;7.70;88.72;102517.53;4977760;28;20460;-79
2023/05/25 01:56:53;;;;;;;14.68;7.13;;;;;;;7.69;88.92;102521.00;4970009;28;20042;-79
2023/05/25 01:59:20;;;;;;;16.40;7.07;;;;;;;7.71;89.16;102515.81;4964443;28;20042;-79
2023/05/25 02:01:48;;;;;;;14.82;6.50;;;;;;;7.68;89.72;102528.78;4965398;28;20491;-79
2023/05/25 02:04:16;;;;;;;13.50;6.18;;;;;;;7.65;89.29;102520.88;4962239;28;20475;-78
2023/05/25 02:06:41;;;;;;;12.73;6.25;;;;;;;7.64;89.36;102525.19;4943557;28;20393;-78
2023/05/25 02:09:07;;;;;;;14.48;6.75;;;;;;;7.65;88.88;102526.97;4932742;28;20039;-79
2023/05/25 02:11:32;;;;;;;14.07;6.20;;;;;;;7.59;89.77;102524.19;4932133;28;20042;-78
2023/05/25 02:13:57;;;;;;;10.75;6.75;;;;;;;7.61;89.45;102517.28;4929439;28;20035;-79
2023/05/25 02:16:23;;;;;;;14.35;6.40;;;;;;;7.59;88.79;102517.22;4947659;28;20383;-79
2023/05/25 02:18:49;;;;;;;15.52;6.93;;;;;;;7.59;88.28;102519.84;4950562;28;20491;-79
2023/05/25 02:21:15;;;;;;;15.68;7.07;;;;;;;7.56;88.56;102519.75;4932188;28;20038;-79
2023/05/25 02:23:41;;;;;;;12.15;6.43;;;;;;;7.57;88.76;102523.25;4956432;28;20030;-79
2023/05/25 02:26:06;;;;;;;14.05;6.60;;;;;;;7.56;88.56;102524.13;4927469;28;20031;-79
2023/05/25 02:28:31;;;;;;;12.48;6.72;;;;;;;7.44;89.15;102519.41;4929681;28;20062;-79
2023/05/25 02:30:57;;;;;;;18.17;7.95;;;;;;;7.45;89.72;102521.19;4947482;28;20035;-79
2023/05/25 02:33:22;;;;;;;12.18;6.63;;;;;;;7.38;89.54;102519.25;4938515;28;20094;-79
2023/05/25 02:35:48;;;;;;;12.63;6.47;;;;;;;7.31;90.44;102512.97;4950105;28;20034;-79
2023/05/25 02:38:13;;;;;;;14.10;7.47;;;;;;;7.29;90.41;102517.25;4945351;28;20126;-78
2023/05/25 02:40:39;;;;;;;13.98;7.18;;;;;;;7.34;90.63;102517.38;4928560;28;20039;-79
2023/05/25 02:43:04;;;;;;;12.93;6.70;;;;;;;7.36;89.31;102515.72;4969920;28;20034;-79
2023/05/25 02:45:30;;;;;;;13.82;6.90;;;;;;;7.34;89.86;102514.78;4953826;28;20023;-79
2023/05/25 02:47:55;;;;;;;14.35;6.93;;;;;;;7.38;89.90;102516.63;4951430;28;20043;-79
2023/05/25 02:50:21;;;;;;;12.95;6.40;;;;;;;7.34;89.31;102512.16;4945405;28;20065;-79
2023/05/25 02:52:46;;;;;;;14.70;6.72;;;;;;;7.27;89.35;102516.34;4946067;28;20046;-79
2023/05/25 02:55:17;;;;;;;13.98;6.82;;;;;;;7.36;89.52;102520.94;4931587;29;20098;-79
2023/05/25 02:57:43;;;;;;;13.68;6.25;;;;;;;7.30;88.32;102519.03;4950669;28;20031;-78
2023/05/25 03:00:12;;;;;;;11.65;6.95;;;;;;;7.24;88.46;102522.34;4957197;28;20118;-79
2023/05/25 03:02:37;;;;;;;12.63;6.70;;;;;;;7.26;88.32;102514.56;4942744;28;20031;-79
2023/05/25 03:05:04;;;;;;;12.90;7.15;;;;;;;7.18;89.31;102522.16;4962918;28;20365;-79
2023/05/25 03:07:29;;;;;;;15.02;6.75;;;;;;;7.17;89.19;102522.09;4959995;28;20448;-79
2023/05/25 03:09:55;;;;;;;13.80;7.00;;;;;;;7.12;90.00;102527.19;4944709;28;20118;-79
2023/05/25 03:12:21;;;;;;;12.07;7.05;;;;;;;7.13;89.58;102528.09;4932651;28;20154;-78
2023/05/25 03:14:46;;;;;;;13.38;7.10;;;;;;;7.15;89.25;102536.84;4931431;28;20464;-79
2023/05/25 03:17:11;;;;;;;13.88;6.15;;;;;;;7.13;89.46;102523.75;4949642;28;20526;-79
2023/05/25 03:19:37;;;;;;;13.18;7.28;;;;;;;7.08;90.12;102535.75;4927914;28;20039;-79
2023/05/25 03:22:03;;;;;;;14.57;7.25;;;;;;;7.03;90.82;102545.19;4938154;28;20109;-78
2023/05/25 03:24:29;;;;;;;11.95;7.45;;;;;;;7.07;91.42;102544.44;4963166;28;20125;-79
2023/05/25 03:26:54;;;;;;;14.25;6.75;;;;;;;7.01;90.20;102545.13;4962964;28;20033;-78
2023/05/25 03:29:20;;;;;;;14.93;8.75;;;;;;;6.96;90.80;102545.84;4946161;28;20078;-79
2023/05/25 03:31:45;;;;;;;15.85;7.80;;;;;;;6.96;90.78;102553.66;4946352;28;20466;-79
2023/05/25 03:34:11;;;;;;;15.00;8.00;;;;;;;6.90;90.80;102551.75;4948226;28;20064;-79
2023/05/25 03:36:37;;;;;;;15.70;7.60;;;;;;;6.96;90.54;102554.53;4929144;28;20023;-79
2023/05/25 03:39:04;;;;;;;16.88;8.68;;;;;;;6.91;91.47;102553.50;4946670;28;20170;-79
2023/05/25 03:41:30;;;;;;;17.20;8.00;;;;;;;6.96;91.66;102561.47;4965649;28;20085;-79
2023/05/25 03:43:55;;;;;;;17.50;8.57;;;;;;;6.89;91.84;102563.00;4950194;28;20046;-79
2023/05/25 03:46:20;;;;;;;17.02;8.80;;;;;;;6.90;91.64;102565.66;4951168;28;20494;-78
2023/05/25 03:48:46;;;;;;;12.65;7.97;;;;;;;6.92;91.91;102565.69;4947242;28;20432;-78
2023/05/25 03:51:15;;;;;;;12.63;8.20;;;;;;;6.94;91.81;102562.31;4948759;28;20111;-79
2023/05/25 03:53:40;;;;;;;16.85;8.80;;;;;;;6.90;91.87;102572.59;4964967;28;20042;-78
2023/05/25 03:56:06;;;;;;;15.18;8.43;;;;;;;6.91;92.02;102577.84;4934413;28;20058;-79
2023/05/25 03:58:31;;;;;;;15.80;7.90;;;;;;;6.86;92.23;102571.59;4933798;28;20359;-79
2023/05/25 04:00:57;;;;;;;17.02;8.65;;;;;;;6.82;92.94;102579.28;4936872;28;20026;-79
2023/05/25 04:03:23;;;;;;;14.52;8.90;;;;;;;6.84;93.52;102575.88;4941070;28;20031;-79
2023/05/25 04:05:51;;;;;;;15.90;9.07;;;;;;;6.88;92.79;102572.53;4965269;28;20030;-79
2023/05/25 04:08:18;;;;;;;17.35;9.43;;;;;;;6.94;93.81;102575.34;4956882;28;20043;-79
2023/05/25 04:10:47;;;;;;;15.45;9.10;;;;;;;7.02;93.35;102572.94;4951502;28;20019;-79
2023/05/25 04:13:12;;;;;;;15.00;8.80;;;;;;;7.11;93.23;102573.25;4959155;28;20387;-77
2023/05/25 04:15:38;;;;;;;13.90;8.20;;;;;;;7.23;93.46;102577.94;4959298;28;20027;-79
2023/05/25 04:18:03;;;;;;;15.55;9.00;;;;;;;7.25;93.23;102570.16;4958652;28;20039;-79
2023/05/25 04:20:29;;;;;;;21.20;9.82;;;;;;;7.39;93.74;102574.06;4952565;28;20019;-79
2023/05/25 04:22:55;;;;;;;16.73;9.40;;;;;;;7.53;93.20;102584.00;4961596;28;20046;-79
2023/05/25 04:25:21;;;;;;;17.77;9.10;;;;;;;7.56;93.15;102585.00;4943431;29;20031;-78
2023/05/25 04:27:47;;;;;;;17.58;9.48;;;;;;;7.71;93.23;102588.88;4956906;28;20043;-78
2023/05/25 04:30:14;;;;;;;17.30;8.52;;;;;;;7.76;92.78;102585.56;4957961;28;20039;-79
2023/05/25 04:32:39;;;;;;;17.70;9.45;;;;;;;7.90;92.55;102585.03;4965174;28;20379;-78
2023/05/25 04:35:05;;;;;;;16.25;8.40;;;;;;;7.96;92.55;102593.94;4951351;28;20042;-79
2023/05/25 04:37:32;;;;;;;15.98;9.32;;;;;;;8.15;91.96;102589.22;4965227;28;20085;-80
2023/05/25 04:39:57;;;;;;;13.73;7.85;;;;;;;8.22;91.95;102596.34;4961617;28;20031;-78
2023/05/25 04:42:23;;;;;;;17.63;9.05;;;;;;;8.30;91.41;102594.84;4965609;28;20041;-78
2023/05/25 04:44:54;;;;;;;14.98;8.60;;;;;;;8.41;91.87;102594.22;4951279;28;20042;-78
2023/05/25 04:47:20;;;;;;;13.88;8.35;;;;;;;8.53;91.66;102593.66;4945506;28;20034;-79
2023/05/25 04:49:46;;;;;;;15.90;8.27;;;;;;;8.76;90.65;102589.88;4946577;28;20193;-78
2023/05/25 04:52:12;;;;;;;16.20;8.88;;;;;;;8.90;90.24;102591.94;4962901;28;20117;-79
2023/05/25 04:54:37;;;;;;;17.65;8.45;;;;;;;9.17;89.77;102586.47;4946566;28;20068;-78
2023/05/25 04:57:03;;;;;;;15.48;8.10;;;;;;;9.17;89.65;102592.56;4929331;28;20031;-79
2023/05/25 04:59:28;;;;;;;17.92;8.32;;;;;;;9.45;89.46;102597.50;4949419;28;20049;-78
2023/05/25 05:01:53;;;;;;;17.80;8.75;;;;;;;9.56;88.45;102606.47;4940515;28;20165;-79
2023/05/25 05:04:19;;;;;;;12.05;7.60;;;;;;;9.75;87.33;102605.09;4945954;28;20054;-79
2023/05/25 05:06:48;;;;;;;13.05;7.57;;;;;;;9.95;86.97;102605.50;4954303;28;20042;-78
2023/05/25 05:09:13;;;;;;;15.45;8.18;;;;;;;10.10;86.02;102610.16;4946462;28;20460;-78
2023/05/25 05:11:39;;;;;;;15.50;8.02;;;;;;;10.20;85.41;102605.94;4948465;28;20124;-77
2023/05/25 05:14:04;;;;;;;12.88;7.53;;;;;;;10.32;85.27;102600.94;4939147;28;20031;-78
2023/05/25 05:16:32;;;;;;;15.95;8.57;;;;;;;10.48;84.75;102596.88;4952344;28;20030;-79
2023/05/25 05:18:58;;;;;;;11.95;6.97;;;;;;;10.58;84.33;102609.25;4950243;28;20073;-80
2023/05/25 05:21:23;;;;;;;16.13;7.90;;;;;;;10.74;83.78;102599.03;4934796;28;20059;-79
2023/05/25 05:23:48;;;;;;;14.75;7.50;;;;;;;11.11;84.04;102614.47;4935075;28;20042;-78
2023/05/25 05:26:14;;;;;;;14.10;7.95;;;;;;;11.26;82.28;102612.94;4934631;28;20073;-79
2023/05/25 05:28:39;;;;;;;13.55;7.07;;;;;;;11.29;80.33;102612.06;4962056;28;20043;-78
2023/05/25 05:31:06;;;;;;;15.15;7.55;;;;;;;11.51;80.24;102620.25;4953181;28;20313;-78
2023/05/25 05:33:31;;;;;;;16.15;7.15;;;;;;;11.72;80.42;102624.88;4934416;28;20031;-79
2023/05/25 05:35:57;;;;;;;14.90;7.05;;;;;;;11.73;78.81;102624.88;4948135;28;20031;-77
2023/05/25 05:38:23;;;;;;;15.05;7.10;;;;;;;11.80;78.15;102628.47;4949812;28;20038;-79
2023/05/25 05:40:48;;;;;;;12.10;6.97;;;;;;;11.96;77.75;102629.56;4931293;28;20454;-78
2023/05/25 05:43:14;;;;;;;15.55;7.60;;;;;;;12.19;77.91;102637.69;4951455;28;20046;-78
2023/05/25 05:45:40;;;;;;;16.10;7.22;;;;;;;12.25;76.55;102631.63;4932817;28;20027;-78
2023/05/25 05:48:09;;;;;;;15.35;7.50;;;;;;;12.19;76.53;102640.31;4948109;28;20039;-79
2023/05/25 05:50:38;;;;;;;13.95;7.05;;;;;;;12.45;75.94;102645.81;4947565;28;20034;-78
2023/05/25 05:53:05;;;;;;;13.85;6.78;;;;;;;12.45;75.24;102645.81;4964086;28;20023;-80
2023/05/25 05:55:31;;;;;;;16.08;7.30;;;;;;;12.95;75.74;102636.59;4944362;28;20024;-77
2023/05/25 05:57:56;;;;;;;16.45;7.68;;;;;;;12.99;75.23;102646.25;4949329;28;20041;-80
2023/05/25 06:00:22;;;;;;;14.55;7.47;;;;;;;13.31;75.46;102648.22;4949719;28;20030;-79
2023/05/25 06:02:47;;;;;;;12.18;6.47;;;;;;;13.44;73.32;102654.47;4955503;28;20031;-79
2023/05/25 06:05:13;;;;;;;11.70;6.57;;;;;;;13.76;73.35;102653.72;4928067;28;20057;-79
2023/05/25 06:07:38;;;;;;;14.63;7.28;;;;;;;13.85;70.68;102658.19;4933918;28;20057;-78
2023/05/25 06:10:05;;;;;;;14.20;6.82;;;;;;;13.88;71.40;102652.91;4966109;28;20031;-81
2023/05/25 06:12:30;;;;;;;13.75;6.95;;;;;;;14.12;69.75;102652.13;4939595;28;20038;-80
2023/05/25 06:14:55;;;;;;;13.02;6.30;;;;;;;14.35;70.18;102661.81;4930099;28;20406;-79
2023/05/25 06:17:22;;;;;;;12.80;6.75;;;;;;;14.50;70.54;102663.59;4928860;28;20479;-80
2023/05/25 06:19:49;;;;;;;14.15;6.18;;;;;;;14.62;71.14;102665.38;4946903;28;20185;-80
2023/05/25 06:22:15;;;;;;;14.48;6.15;;;;;;;15.01;69.39;102666.25;4962236;28;20019;-79
2023/05/25 06:24:41;;;;;;;13.57;6.32;;;;;;;14.88;66.33;102670.66;4946266;28;20395;-77
2023/05/25 06:27:06;;;;;;;12.43;6.13;;;;;;;15.03;68.42;102677.72;4965861;28;20027;-80
2023/05/25 06:29:32;;;;;;;11.13;6.22;;;;;;;15.13;65.75;102676.81;4955014;28;20046;-79
2023/05/25 06:31:57;;;;;;;11.35;6.25;;;;;;;15.05;64.18;102683.84;4939455;28;20034;-80
2023/05/25 06:34:22;;;;;;;12.82;6.30;;;;;;;14.71;65.21;102675.94;4945749;28;20035;-79
2023/05/25 06:36:48;;;;;;;13.98;6.10;;;;;;;14.45;65.40;102682.06;4948311;28;20561;-79
2023/05/25 06:39:14;;;;;;;11.05;6.05;;;;;;;14.21;66.09;102686.41;4945194;28;20146;-77
2023/05/25 06:41:39;;;;;;;13.40;5.68;;;;;;;13.84;66.87;102688.91;4948631;28;20122;-77
2023/05/25 06:44:05;;;;;;;12.02;6.13;;;;;;;13.69;68.17;102686.19;4931711;28;20035;-78
2023/05/25 06:46:31;;;;;;;11.93;6.15;;;;;;;13.53;68.56;102685.22;4931062;28;20491;-77
2023/05/25 06:48:59;;;;;;;12.10;5.70;;;;;;;13.56;68.34;102694.91;4945982;28;20043;-79
2023/05/25 06:51:26;;;;;;;12.40;5.55;;;;;;;13.48;69.02;102674.69;4949428;28;20390;-78
2023/05/25 06:53:52;;;;;;;10.88;5.03;;;;;;;13.59;68.26;102692.28;4949198;28;20031;-78
2023/05/25 06:56:17;;;;;;;13.00;6.45;;;;;;;13.88;71.83;102688.91;4934902;28;20026;-78
2023/05/25 06:58:43;;;;;;;12.90;6.78;;;;;;;13.93;69.25;102695.09;4951671;28;20490;-78
2023/05/25 07:01:08;;;;;;;13.25;6.22;;;;;;;13.92;69.67;102698.59;4932024;28;20476;-77
2023/05/25 07:03:34;;;;;;;12.32;5.70;;;;;;;14.02;69.56;102695.13;4948748;28;20468;-78
2023/05/25 07:05:59;;;;;;;13.75;5.78;;;;;;;13.97;68.80;102700.38;4946799;28;20479;-78
2023/05/25 07:08:24;;;;;;;12.38;6.07;;;;;;;14.04;68.44;102694.25;4933642;28;20039;-78
2023/05/25 07:10:50;;;;;;;12.82;5.70;;;;;;;13.97;67.51;102696.88;4934525;28;20558;-77
2023/05/25 07:13:15;;;;;;;11.93;5.72;;;;;;;13.91;68.46;102691.59;4931776;28;20070;-80
2023/05/25 07:15:41;;;;;;;12.02;6.03;;;;;;;14.03;68.14;102697.75;4963277;28;20043;-78
2023/05/25 07:18:06;;;;;;;13.18;6.53;;;;;;;14.17;69.49;102702.22;4937007;28;20030;-78
2023/05/25 07:20:32;;;;;;;13.20;6.50;;;;;;;14.20;68.83;102697.81;4932263;28;20034;-78
2023/05/25 07:22:58;;;;;;;17.25;6.45;;;;;;;14.46;72.86;102696.13;4947601;28;20039;-78
2023/05/25 07:25:23;;;;;;;11.75;6.60;;;;;;;14.60;68.50;102704.94;4949255;29;20046;-78
2023/05/25 07:27:53;;;;;;;12.95;5.30;;;;;;;14.86;67.03;102704.97;4958872;28;20499;-76
2023/05/25 07:30:19;;;;;;;13.77;5.60;;;;;;;14.95;65.91;102703.22;4954207;28;20039;-77
2023/05/25 07:32:45;;;;;;;15.93;6.50;;;;;;;15.08;67.14;102704.97;4939232;28;20475;-77
2023/05/25 07:35:10;;;;;;;10.40;5.63;;;;;;;15.11;65.94;102704.09;4955001;28;20033;-77
2023/05/25 07:37:36;;;;;;;10.95;5.07;;;;;;;15.20;67.02;102704.97;4954822;28;20118;-79
2023/05/25 07:40:01;;;;;;;13.02;6.28;;;;;;;15.22;63.95;102713.75;4938985;28;20087;-78
2023/05/25 07:42:32;;;;;;;11.68;5.75;;;;;;;15.40;65.50;102706.66;4964291;28;20035;-78
2023/05/25 07:44:58;;;;;;;13.43;5.53;;;;;;;15.39;61.67;102712.88;4956506;28;20507;-76
2023/05/25 07:47:24;;;;;;;11.98;5.70;;;;;;;15.46;62.90;102709.31;4953049;28;20025;-76
2023/05/25 07:49:49;;;;;;;14.13;5.78;;;;;;;15.60;67.07;102703.97;4955789;28;20034;-78
2023/05/25 07:52:15;;;;;;;9.95;4.80;;;;;;;15.39;62.05;102711.09;4939677;28;20035;-80
2023/05/25 07:54:41;;;;;;;21.15;5.93;;;;;;;15.42;62.55;102713.72;4938171;28;20061;-77
2023/05/25 07:57:06;;;;;;;13.45;5.60;;;;;;;15.55;63.56;102706.63;4955492;28;20039;-76
2023/05/25 07:59:32;;;;;;;13.27;5.45;;;;;;;15.56;62.35;102713.69;4955910;28;20031;-77
2023/05/25 08:01:57;;;;;;;12.35;5.10;;;;;;;15.40;61.26;102714.59;4939026;28;20027;-77
2023/05/25 08:04:23;;;;;;;13.02;5.70;;;;;;;15.15;60.21;102725.19;4955618;28;20391;-75
2023/05/25 08:06:48;;;;;;;11.57;5.85;;;;;;;15.14;60.78;102726.09;4941588;28;20043;-76
2023/05/25 08:09:13;;;;;;;14.00;6.03;;;;;;;15.06;62.21;102726.09;4955911;28;20042;-74
2023/05/25 08:11:39;;;;;;;12.50;5.65;;;;;;;15.05;63.23;102726.09;4950580;29;20039;-76
2023/05/25 08:14:04;;;;;;;14.07;5.60;;;;;;;15.04;60.98;102735.78;4936677;29;20484;-75
2023/05/25 08:16:30;;;;;;;12.35;5.30;;;;;;;14.98;60.77;102729.63;4936388;29;20494;-77
2023/05/25 08:18:55;;;;;;;14.52;4.82;;;;;;;15.04;62.13;102732.25;4937484;28;20043;-75
2023/05/25 08:21:21;;;;;;;12.52;5.45;;;;;;;15.16;62.57;102734.91;4955379;28;20034;-76
2023/05/25 08:23:46;;;;;;;9.63;4.75;;;;;;;15.06;60.86;102733.16;4954658;28;20483;-75
2023/05/25 08:26:12;;;;;;;9.82;4.93;;;;;;;15.24;62.87;102727.84;4971125;28;20031;-75
2023/05/25 08:28:37;;;;;;;11.48;5.15;;;;;;;15.27;61.16;102729.63;4953929;28;20553;-76
2023/05/25 08:31:03;;;;;;;9.85;4.68;;;;;;;15.38;61.29;102729.59;4953317;28;20039;-75
2023/05/25 08:33:30;;;;;;;17.98;4.95;;;;;;;15.33;60.76;102726.06;4925063;29;20032;-74
2023/05/25 08:35:55;;;;;;;13.75;5.07;;;;;;;15.41;62.87;102721.66;4982308;28;20034;-76
2023/05/25 08:38:24;;;;;;;10.07;4.07;;;;;;;15.44;59.75;102726.91;4952059;28;20031;-75
2023/05/25 08:41:03;;;;;;;13.65;4.70;;;;;;;15.50;60.04;102733.97;4957605;28;20141;-77
2023/05/25 08:43:29;;;;;;;12.27;5.05;;;;;;;15.42;60.08;102744.56;4960914;28;20035;-76
2023/05/25 08:46:02;;;;;;;14.40;4.47;;;;;;;15.47;60.65;102744.53;4939874;29;20118;-75
2023/05/25 08:48:29;;;;;;;10.82;4.40;;;;;;;15.32;59.88;102742.81;4955816;29;20038;-77
2023/05/25 08:50:59;;;;;;;16.55;5.55;;;;;;;15.25;60.15;102740.16;4955236;28;20039;-77
2023/05/25 08:53:25;;;;;;;12.23;4.55;;;;;;;15.35;60.87;102741.03;4969647;28;20506;-78
2023/05/25 08:55:53;;;;;;;13.00;4.78;;;;;;;15.25;60.06;102740.16;4954971;28;20027;-76
2023/05/25 08:58:27;;;;;;;14.82;5.20;;;;;;;15.27;60.83;102741.91;4944138;28;20372;-76
2023/05/25 09:00:58;;;;;;;12.82;4.43;;;;;;;15.27;61.79;102741.91;4966619;28;20122;-79
2023/05/25 09:03:24;;;;;;;12.30;4.57;;;;;;;15.39;61.66;102747.19;4973015;28;20050;-77
2023/05/25 09:05:50;;;;;;;13.27;5.32;;;;;;;15.26;60.69;102748.97;4955671;28;20039;-78
2023/05/25 09:08:16;;;;;;;12.82;4.78;;;;;;;15.18;60.57;102743.69;4941448;28;20047;-78
2023/05/25 09:10:41;;;;;;;11.45;4.40;;;;;;;15.14;60.61;102749.88;4973909;28;20037;-79
2023/05/25 09:13:07;;;;;;;11.90;5.10;;;;;;;15.07;62.03;102756.03;4974379;28;20030;-80
2023/05/25 09:15:34;;;;;;;14.82;4.82;;;;;;;15.04;62.53;102762.19;4937213;28;20047;-81
2023/05/25 09:17:59;;;;;;;12.23;4.53;;;;;;;14.98;62.04;102756.00;4958591;28;20034;-79
2023/05/25 09:20:30;;;;;;;12.82;4.85;;;;;;;14.89;62.02;102752.47;4954702;29;20511;-78
2023/05/25 09:23:16;;;;;;;11.63;3.70;;;;;;;14.98;62.54;102748.97;4958501;28;20058;-78
2023/05/25 09:25:42;;;;;;;15.48;4.88;;;;;;;14.90;62.07;102745.47;4972451;28;20546;-81
2023/05/25 09:28:08;;;;;;;10.60;4.25;;;;;;;15.09;63.63;102742.84;4974123;28;20035;-79
2023/05/25 09:30:35;;;;;;;14.27;5.18;;;;;;;15.36;64.26;102752.50;4938021;28;20118;-79
2023/05/25 09:33:13;;;;;;;10.77;4.43;;;;;;;15.41;59.26;102756.00;4955267;28;20388;-77
2023/05/25 09:35:39;;;;;;;12.82;3.70;;;;;;;15.28;58.45;102762.19;4958171;28;20031;-79
2023/05/25 09:38:06;;;;;;;9.90;4.03;;;;;;;15.16;61.14;102757.78;4974149;28;20035;-77
2023/05/25 09:40:33;;;;;;;12.02;4.13;;;;;;;15.11;60.35;102767.47;4973074;28;20050;-76
2023/05/25 09:42:58;;;;;;;12.93;4.68;;;;;;;15.04;60.44;102764.84;4954852;29;20395;-78
2023/05/25 09:45:24;;;;;;;10.70;4.40;;;;;;;14.94;60.11;102764.81;4926028;28;20026;-78
2023/05/25 09:47:55;;;;;;;11.13;4.53;;;;;;;14.87;60.70;102770.09;4953749;29;20051;-80
2023/05/25 09:50:20;;;;;;;11.05;4.53;;;;;;;14.97;61.93;102764.81;4954484;29;20043;-79
2023/05/25 09:52:47;;;;;;;13.32;3.97;;;;;;;14.94;60.36;102754.25;4954066;28;20087;-79
2023/05/25 09:55:12;;;;;;;13.30;4.10;;;;;;;14.92;59.78;102758.66;4965387;28;20368;-76
2023/05/25 10:00:45;;;;;;;9.25;3.45;;;;;;;15.08;59.70;102763.06;4954930;29;20414;-78
2023/05/25 10:03:13;;;;;;;10.38;3.72;;;;;;;15.05;60.37;102757.78;4939552;28;20029;-79
2023/05/25 10:05:55;;;;;;;16.20;3.67;;;;;;;15.07;59.87;102766.59;4938648;28;20035;-80
2023/05/25 10:08:27;;;;;;;11.43;4.07;;;;;;;14.90;58.73;102767.44;4954356;28;20086;-78
2023/05/25 10:10:53;;;;;;;11.88;4.15;;;;;;;14.81;60.36;102770.09;4957536;28;20130;-78
2023/05/25 10:13:23;;;;;;;15.43;4.22;;;;;;;14.84;61.14;102775.38;4973647;28;20121;-79
2023/05/25 10:15:52;;;;;;;15.02;3.90;;;;;;;14.79;59.20;102761.28;4973627;28;20103;-80
2023/05/25 10:18:24;;;;;;;15.18;4.40;;;;;;;14.68;58.67;102779.75;4972111;28;20026;-78
2023/05/25 10:21:00;;;;;;;13.98;4.45;;;;;;;14.75;60.56;102769.19;4971119;28;20030;-80
2023/05/25 10:23:32;;;;;;;10.68;3.47;;;;;;;14.85;59.24;102774.47;4973198;28;20471;-77
2023/05/25 10:26:02;;;;;;;9.93;3.83;;;;;;;14.86;59.04;102765.69;4970580;28;20033;-79
2023/05/25 10:28:32;;;;;;;11.13;3.90;;;;;;;14.98;58.55;102775.38;4955845;28;20031;-77
2023/05/25 10:30:58;;;;;;;10.32;4.07;;;;;;;15.14;58.68;102772.75;4956268;28;20120;-81
2023/05/25 10:33:24;;;;;;;9.82;3.00;;;;;;;15.29;59.48;102767.47;4955677;28;20102;-75
2023/05/25 10:35:50;;;;;;;9.15;3.03;;;;;;;15.36;57.21;102773.63;4963891;28;20070;-81
2023/05/25 10:38:19;;;;;;;13.82;3.58;;;;;;;15.45;57.41;102763.03;4956430;28;20050;-80
2023/05/25 10:40:51;;;;;;;11.75;3.58;;;;;;;15.60;56.54;102756.81;4971678;28;20109;-78
2023/05/25 10:43:18;;;;;;;12.73;4.45;;;;;;;15.90;58.01;102766.50;4952371;28;20455;-78
2023/05/25 10:45:44;;;;;;;11.48;3.97;;;;;;;16.02;57.06;102759.38;4962265;28;20399;-80
2023/05/25 10:48:10;;;;;;;13.02;3.85;;;;;;;16.15;56.96;102766.41;4965443;28;20035;-81
2023/05/25 10:50:36;;;;;;;11.30;3.72;;;;;;;16.13;55.10;102759.34;4961345;28;20559;-78
2023/05/25 10:53:05;;;;;;;12.75;4.20;;;;;;;16.03;54.02;102756.75;4963431;28;20140;-76
2023/05/25 10:55:42;;;;;;;10.90;4.40;;;;;;;16.16;57.41;102765.53;4970010;28;20230;-81
2023/05/25 10:58:15;;;;;;;12.55;4.07;;;;;;;16.18;56.27;102766.38;4968159;28;20114;-79
2023/05/25 11:00:41;;;;;;;14.93;5.40;;;;;;;16.24;58.31;102768.13;4974797;28;20110;-77
2023/05/25 11:03:08;;;;;;;10.45;4.45;;;;;;;16.24;57.62;102770.75;4938755;28;20547;-77
2023/05/25 11:05:36;;;;;;;13.38;5.00;;;;;;;16.41;58.13;102762.75;4939408;28;20027;-79
2023/05/25 11:08:11;;;;;;;11.70;4.68;;;;;;;16.70;56.67;102754.63;4971803;28;20038;-78
2023/05/25 11:10:48;;;;;;;12.23;4.82;;;;;;;16.82;55.98;102764.22;4958552;28;20101;-79
2023/05/25 11:13:43;;;;;;;12.35;5.70;;;;;;;16.79;57.35;102754.56;4967221;28;20034;-81
2023/05/25 11:16:16;;;;;;;11.00;5.13;;;;;;;16.58;54.09;102755.59;4961688;28;20364;-78
2023/05/25 11:18:47;;;;;;;13.18;5.97;;;;;;;16.51;55.07;102759.16;4987990;28;20109;-77
2023/05/25 11:21:39;;;;;;;14.73;5.45;;;;;;;16.44;55.13;102762.72;4951445;28;20031;-79
2023/05/25 11:24:16;;;;;;;13.95;5.18;;;;;;;16.41;55.21;102752.16;4969191;28;20022;-78
2023/05/25 11:26:56;;;;;;;11.20;5.07;;;;;;;16.32;55.99;102762.78;4967159;28;20024;-80